»·PEaware :: JTL108 KTEX-U36

JTL108 :: KTEX-U36

FLIGHT INFORMATION

Flight Status: Arrived
Operator: Unknown
More flights by this operator :: More flights under this callsign
Pilot: Ian G. (41107)
Aircraft: Cessna 525C Citation CJ4
(C25C)
More flights by this aircraft type
Origin: KTEX Telluride Regl
United States
Destination: U36 Aberdeen Mun
United States
More flights between these airports :: More routes between these airports
Route: ETL BDROC J15 TCH PIMIE MLD PIH
File this flight plan on PilotEdge
Remarks: RMK / SIMBRIEF
Altitude:
(Current/Filed)
43,000ft
Speed:
(Current/Filed)
434kts
Departed: 12-Sep-23 09:19 AM
Arrived: 12-Sep-23 10:26 AM
Distance/Time
Traveled:
375nm/1:07
Distance/Time
To Go:
Arrived

Flight Plot

Page will automatically refresh every two minutes.

Flight plan parsing failed; only flown route is shown


Map Options




Map Legend


Flown Route
Filed Route
Departure Airport
Arrival Airport
Navaid (VOR, NDB)
Fix

Horizontal Profiles

Position Reports

Time Latitude Longitude Heading Altitude Ground
Speed
12-Sep-23 09:06 37.954114 -107.902917 92 9051ft 0kts
12-Sep-23 09:07 37.954114 -107.902917 92 9051ft 0kts
12-Sep-23 09:08 37.954116 -107.902973 92 9051ft 0kts
12-Sep-23 09:09 37.954116 -107.902973 92 9051ft 0kts
12-Sep-23 09:10 37.954116 -107.902973 92 9051ft 0kts
12-Sep-23 09:11 37.954116 -107.902973 92 9051ft 0kts
12-Sep-23 09:12 37.954116 -107.902973 92 9051ft 0kts
12-Sep-23 09:13 37.954116 -107.902973 92 9051ft 0kts
12-Sep-23 09:14 37.954116 -107.902973 92 9051ft 0kts
12-Sep-23 09:15 37.954116 -107.902973 92 9051ft 0kts
12-Sep-23 09:16 37.953814 -107.902268 119 9053ft 10kts
12-Sep-23 09:17 37.953280 -107.901174 155 9052ft 0kts
12-Sep-23 09:18 37.956503 -107.921393 286 9371ft 163kts
12-Sep-23 09:19 37.975653 -107.990878 287 12749ft 230kts
12-Sep-23 09:20 37.996417 -108.076958 286 15585ft 277kts
12-Sep-23 09:21 38.020179 -108.175319 286 18474ft 306kts
12-Sep-23 09:22 38.057100 -108.272790 321 21211ft 323kts
12-Sep-23 09:23 38.133982 -108.337265 323 23847ft 337kts
12-Sep-23 09:24 38.212888 -108.403814 322 26240ft 345kts
12-Sep-23 09:25 38.294112 -108.472490 321 28518ft 356kts
12-Sep-23 09:26 38.377366 -108.543013 320 30783ft 360kts
12-Sep-23 09:27 38.463145 -108.607413 333 33086ft 362kts
12-Sep-23 09:28 38.561002 -108.639149 340 35149ft 361kts
12-Sep-23 09:30 38.658352 -108.668880 339 36889ft 358kts
12-Sep-23 09:31 38.754979 -108.698532 339 38576ft 355kts
12-Sep-23 09:32 38.850440 -108.727908 339 39962ft 351kts
12-Sep-23 09:33 38.945239 -108.757174 339 41363ft 349kts
12-Sep-23 09:34 39.036943 -108.793123 326 42707ft 338kts
12-Sep-23 09:35 39.107115 -108.873305 303 43074ft 349kts
12-Sep-23 09:36 39.167954 -108.976707 304 43020ft 373kts
12-Sep-23 09:37 39.231969 -109.085980 304 43011ft 386kts
12-Sep-23 09:38 39.296803 -109.197041 304 43024ft 388kts
12-Sep-23 09:39 39.361651 -109.308527 304 43032ft 390kts
12-Sep-23 09:40 39.426950 -109.421175 304 43043ft 393kts
12-Sep-23 09:41 39.491919 -109.533642 304 43051ft 390kts
12-Sep-23 09:42 39.557374 -109.647353 304 43061ft 397kts
12-Sep-23 09:43 39.623390 -109.762450 304 43061ft 397kts
12-Sep-23 09:44 39.688845 -109.876977 304 43059ft 395kts
12-Sep-23 09:45 39.754199 -109.991732 304 43059ft 393kts
12-Sep-23 09:46 39.819035 -110.106037 304 43061ft 392kts
12-Sep-23 09:47 39.883717 -110.220463 304 43063ft 392kts
12-Sep-23 09:48 39.948091 -110.334749 304 43068ft 392kts
12-Sep-23 09:49 40.012506 -110.449513 304 42941ft 395kts
12-Sep-23 09:50 40.078481 -110.567501 303 41929ft 409kts
12-Sep-23 09:51 40.145776 -110.688296 303 40962ft 408kts
12-Sep-23 09:52 40.212486 -110.808532 303 39638ft 408kts
12-Sep-23 09:53 40.278774 -110.928479 302 38543ft 406kts
12-Sep-23 09:53 40.334145 -111.028999 303 37500ft 410kts
12-Sep-23 09:55 40.412737 -111.172236 303 35850ft 420kts
12-Sep-23 09:56 40.481436 -111.297946 303 34514ft 426kts
12-Sep-23 09:57 40.550788 -111.425440 303 32823ft 431kts
12-Sep-23 09:58 40.618758 -111.550864 303 30810ft 414kts
12-Sep-23 09:58 40.674534 -111.654199 304 29025ft 422kts
12-Sep-23 09:59 40.743074 -111.781575 304 27008ft 430kts
12-Sep-23 10:01 40.824301 -111.933232 304 24848ft 428kts
12-Sep-23 10:02 40.921705 -112.006306 344 24115ft 408kts
12-Sep-23 10:02 41.014386 -112.037118 343 24136ft 412kts
12-Sep-23 10:03 41.125328 -112.074650 344 24163ft 412kts
12-Sep-23 10:04 41.236362 -112.112331 344 24175ft 413kts
12-Sep-23 10:05 41.348024 -112.150340 344 24110ft 414kts
12-Sep-23 10:07 41.478245 -112.194851 344 24156ft 413kts
12-Sep-23 10:07 41.571573 -112.226852 344 23550ft 418kts
12-Sep-23 10:08 41.683297 -112.265316 344 22314ft 415kts
12-Sep-23 10:09 41.795055 -112.303913 344 20768ft 409kts
12-Sep-23 10:10 41.903947 -112.343136 344 19315ft 400kts
12-Sep-23 10:11 42.010111 -112.381723 344 18005ft 390kts
12-Sep-23 10:12 42.114597 -112.419923 344 16478ft 388kts
12-Sep-23 10:13 42.217860 -112.456001 348 15022ft 366kts
12-Sep-23 10:14 42.313812 -112.485046 348 13587ft 348kts
12-Sep-23 10:15 42.407712 -112.513046 347 12076ft 344kts
12-Sep-23 10:16 42.498894 -112.540306 347 11910ft 330kts
12-Sep-23 10:17 42.590072 -112.567655 347 11916ft 342kts
12-Sep-23 10:18 42.682308 -112.595562 347 11485ft 323kts
12-Sep-23 10:19 42.764183 -112.623185 345 9924ft 284kts
12-Sep-23 10:20 42.838507 -112.652231 342 8468ft 280kts
12-Sep-23 10:21 42.893550 -112.712384 300 6994ft 256kts
12-Sep-23 10:22 42.920903 -112.785551 297 5800ft 170kts
12-Sep-23 10:23 42.929275 -112.840109 246 5162ft 142kts
12-Sep-23 10:24 42.920998 -112.881813 261 4498ft 67kts
12-Sep-23 10:25 42.920486 -112.886423 101 4500ft 13kts
12-Sep-23 10:26 42.921388 -112.881940 171 4496ft 0kts

Navigation Log

Ident Type
Flight plan parsing failed, navigation log unavailable